Time;durP1;ratioP1;P1;durP2;ratioP2;P2;SDS_P1;SDS_P2;PMS_P1;PMS_P2;Temp;Humidity;BMP_temperature;BMP_pressure;BME280_temperature;BME280_humidity;BME280_pressure;Samples;Min_cycle;Max_cycle;Signal;HPM_P1;HPM_P2
2023/10/31 00:01:51;;;;;;;0.20;0.20;;;11.30;99.90;;;;;;4821528;29;20061;-82
2023/10/31 00:04:17;;;;;;;0.10;0.10;;;11.20;99.90;;;;;;4823920;29;20471;-82
2023/10/31 00:06:43;;;;;;;0.15;0.15;;;11.20;99.90;;;;;;4837547;29;20046;-83
2023/10/31 00:09:10;;;;;;;0.20;0.20;;;11.20;99.90;;;;;;4828710;29;20049;-84
2023/10/31 00:11:36;;;;;;;0.10;0.10;;;11.20;99.90;;;;;;4834710;29;20062;-83
2023/10/31 00:14:02;;;;;;;0.20;0.20;;;11.20;99.90;;;;;;4847741;29;20088;-85
2023/10/31 00:16:28;;;;;;;0.10;0.10;;;11.20;99.90;;;;;;4838358;29;20046;-83
2023/10/31 00:18:53;;;;;;;0.10;0.10;;;11.10;99.90;;;;;;4838409;29;20046;-83
2023/10/31 00:21:19;;;;;;;0.10;0.10;;;11.10;99.90;;;;;;4849017;29;20035;-84
2023/10/31 00:23:46;;;;;;;0.13;0.13;;;11.10;99.90;;;;;;4837439;29;20511;-82
2023/10/31 00:26:12;;;;;;;0.20;0.20;;;11.10;99.90;;;;;;4833911;29;20066;-83
2023/10/31 00:28:38;;;;;;;0.20;0.20;;;11.10;99.90;;;;;;4822257;29;20078;-83
2023/10/31 00:31:05;;;;;;;0.10;0.10;;;11.10;99.90;;;;;;4831279;29;20057;-83
2023/10/31 00:33:30;;;;;;;0.20;0.20;;;11.00;99.90;;;;;;4827323;29;20209;-84
2023/10/31 00:35:56;;;;;;;0.10;0.10;;;11.00;99.90;;;;;;4827427;29;20650;-84
2023/10/31 00:38:21;;;;;;;0.10;0.10;;;11.00;99.90;;;;;;4820216;29;20065;-85
2023/10/31 00:40:47;;;;;;;0.13;0.13;;;11.00;99.90;;;;;;4820954;29;20069;-86
2023/10/31 00:43:13;;;;;;;0.20;0.20;;;11.00;99.90;;;;;;4828813;29;20058;-84
2023/10/31 00:45:40;;;;;;;0.20;0.20;;;10.90;99.90;;;;;;4819126;29;20061;-85
2023/10/31 00:48:05;;;;;;;0.20;0.20;;;10.90;99.90;;;;;;4818612;29;20566;-84
2023/10/31 00:50:31;;;;;;;0.20;0.20;;;10.90;99.90;;;;;;4831369;29;20050;-85
2023/10/31 00:52:57;;;;;;;0.20;0.20;;;10.90;99.90;;;;;;4819206;29;20054;-84
2023/10/31 00:55:25;;;;;;;0.10;0.10;;;10.90;99.90;;;;;;4818960;29;20043;-84
2023/10/31 00:57:50;;;;;;;0.13;0.13;;;10.90;99.90;;;;;;4817874;29;20054;-86
2023/10/31 01:00:16;;;;;;;0.10;0.10;;;10.90;99.90;;;;;;4825855;29;20050;-83
2023/10/31 01:02:42;;;;;;;0.10;0.10;;;10.90;99.90;;;;;;4828306;29;20483;-88
2023/10/31 01:05:08;;;;;;;0.10;0.10;;;10.90;99.90;;;;;;4820633;29;20125;-88
2023/10/31 01:07:35;;;;;;;0.20;0.20;;;10.80;99.90;;;;;;4819422;29;20069;-85
2023/10/31 01:10:01;;;;;;;0.10;0.10;;;10.80;99.90;;;;;;4819270;29;20046;-87
2023/10/31 01:12:27;;;;;;;0.20;0.20;;;10.80;99.90;;;;;;4815752;29;20854;-88
2023/10/31 01:14:54;;;;;;;0.10;0.10;;;10.80;99.90;;;;;;4819320;29;20086;-87
2023/10/31 01:17:21;;;;;;;0.20;0.20;;;10.80;99.90;;;;;;4830392;29;20043;-86
2023/10/31 01:19:46;;;;;;;0.13;0.13;;;10.80;99.90;;;;;;4823925;29;20056;-84
2023/10/31 01:22:12;;;;;;;0.20;0.20;;;10.80;99.90;;;;;;4838394;29;20136;-84
2023/10/31 01:24:40;;;;;;;0.10;0.10;;;10.70;99.90;;;;;;4826567;29;20050;-86
2023/10/31 01:27:06;;;;;;;0.10;0.10;;;10.70;99.90;;;;;;4841008;29;20050;-85
2023/10/31 01:29:32;;;;;;;0.10;0.10;;;10.70;99.90;;;;;;4836812;29;20447;-85
2023/10/31 01:31:57;;;;;;;0.10;0.10;;;10.70;99.90;;;;;;4833875;29;20415;-85
2023/10/31 01:34:23;;;;;;;0.20;0.20;;;10.70;99.90;;;;;;4823468;29;20086;-87
2023/10/31 01:36:49;;;;;;;0.10;0.10;;;10.70;99.90;;;;;;4823563;29;20058;-86
2023/10/31 01:39:14;;;;;;;0.17;0.17;;;10.70;99.90;;;;;;4822836;29;20445;-86
2023/10/31 01:41:43;;;;;;;0.10;0.10;;;10.70;99.90;;;;;;4838394;29;20070;-86
2023/10/31 01:44:10;;;;;;;0.13;0.13;;;10.70;99.90;;;;;;4841156;29;20061;-86
2023/10/31 01:46:36;;;;;;;0.10;0.10;;;10.60;99.90;;;;;;4827959;29;20403;-87
2023/10/31 01:49:02;;;;;;;0.15;0.15;;;10.60;99.90;;;;;;4844036;29;20042;-85
2023/10/31 01:51:29;;;;;;;0.10;0.10;;;10.60;99.90;;;;;;4831643;29;20054;-88
2023/10/31 01:53:55;;;;;;;0.20;0.20;;;10.60;99.90;;;;;;4835436;29;20447;-85
2023/10/31 01:56:25;;;;;;;0.10;0.10;;;10.60;99.90;;;;;;4830802;29;20058;-86
2023/10/31 01:58:52;;;;;;;0.10;0.10;;;10.40;99.90;;;;;;4843121;29;20137;-86
2023/10/31 02:01:19;;;;;;;0.10;0.10;;;10.50;99.90;;;;;;4841863;29;20071;-87
2023/10/31 02:03:45;;;;;;;0.10;0.10;;;10.50;99.90;;;;;;4823236;29;20050;-85
2023/10/31 02:06:10;;;;;;;0.10;0.10;;;10.50;99.90;;;;;;4839234;29;20046;-85
2023/10/31 02:08:36;;;;;;;0.10;0.10;;;10.50;99.90;;;;;;4820312;29;20050;-85
2023/10/31 02:11:03;;;;;;;0.10;0.10;;;10.50;99.90;;;;;;4828264;29;20046;-85
2023/10/31 02:13:29;;;;;;;0.20;0.20;;;10.90;99.90;;;;;;4820771;29;20527;-83
2023/10/31 02:15:55;;;;;;;0.20;0.20;;;10.50;99.90;;;;;;4820067;29;20058;-85
2023/10/31 02:18:21;;;;;;;0.20;0.20;;;10.50;99.90;;;;;;4819999;29;20471;-84
2023/10/31 02:20:46;;;;;;;0.20;0.20;;;10.50;99.90;;;;;;4829670;29;20541;-88
2023/10/31 02:23:14;;;;;;;0.20;0.20;;;10.50;99.90;;;;;;4824765;29;20057;-86
2023/10/31 02:25:40;;;;;;;0.20;0.20;;;10.50;99.90;;;;;;4820540;29;20072;-85
2023/10/31 02:28:06;;;;;;;0.10;0.10;;;10.50;99.90;;;;;;4826270;29;20685;-84
2023/10/31 02:30:32;;;;;;;0.10;0.10;;;10.40;99.90;;;;;;4827598;29;20452;-86
2023/10/31 02:32:57;;;;;;;0.10;0.10;;;10.40;99.90;;;;;;4836113;29;20441;-86
2023/10/31 02:35:23;;;;;;;0.10;0.10;;;10.40;99.90;;;;;;4820709;29;20050;-85
2023/10/31 02:37:49;;;;;;;0.10;0.10;;;10.40;99.90;;;;;;4831048;29;20046;-86
2023/10/31 02:40:15;;;;;;;0.10;0.10;;;10.40;99.90;;;;;;4823915;29;20062;-84
2023/10/31 02:42:40;;;;;;;0.10;0.10;;;10.40;99.90;;;;;;4819691;29;20069;-84
2023/10/31 02:45:07;;;;;;;0.13;0.13;;;10.30;99.90;;;;;;4826063;29;20042;-84
2023/10/31 02:47:33;;;;;;;0.20;0.20;;;10.40;99.90;;;;;;4833029;29;20106;-85
2023/10/31 02:49:58;;;;;;;0.20;0.20;;;10.40;99.90;;;;;;4834155;29;20081;-85
2023/10/31 02:52:24;;;;;;;0.17;0.17;;;10.30;99.90;;;;;;4837846;29;20817;-85
2023/10/31 02:54:50;;;;;;;0.20;0.20;;;10.40;99.90;;;;;;4826369;29;20085;-85
2023/10/31 02:57:16;;;;;;;0.20;0.20;;;10.30;99.90;;;;;;4829440;29;20062;-85
2023/10/31 02:59:46;;;;;;;0.20;0.20;;;10.40;99.90;;;;;;4826334;29;20091;-85
2023/10/31 03:02:11;;;;;;;0.10;0.10;;;10.30;99.90;;;;;;4820225;29;20045;-85
2023/10/31 03:04:37;;;;;;;0.10;0.10;;;10.30;99.90;;;;;;4824063;29;20050;-85
2023/10/31 03:07:03;;;;;;;0.20;0.20;;;10.30;99.90;;;;;;4826750;29;20535;-85
2023/10/31 03:09:29;;;;;;;0.10;0.10;;;10.30;99.90;;;;;;4831151;29;20132;-84
2023/10/31 03:11:54;;;;;;;0.10;0.10;;;10.30;99.90;;;;;;4837434;29;20054;-85
2023/10/31 03:14:20;;;;;;;0.10;0.10;;;10.30;99.90;;;;;;4832097;29;20065;-84
2023/10/31 03:16:46;;;;;;;0.13;0.13;;;10.30;99.90;;;;;;4847518;29;20045;-84
2023/10/31 03:19:12;;;;;;;0.10;0.10;;;10.40;99.90;;;;;;4824570;29;20596;-84
2023/10/31 03:21:38;;;;;;;0.10;0.10;;;10.40;99.90;;;;;;4831252;29;20140;-85
2023/10/31 03:24:04;;;;;;;0.20;0.20;;;10.40;99.90;;;;;;4831125;29;20110;-84
2023/10/31 03:26:29;;;;;;;0.20;0.20;;;10.30;99.90;;;;;;4837212;29;20068;-84
2023/10/31 03:28:57;;;;;;;0.20;0.20;;;10.40;99.90;;;;;;4839896;29;20055;-85
2023/10/31 03:31:23;;;;;;;0.13;0.13;;;10.30;99.90;;;;;;4823439;29;20130;-84
2023/10/31 03:33:53;;;;;;;0.10;0.10;;;10.30;99.90;;;;;;4826085;29;20053;-86
2023/10/31 03:36:19;;;;;;;0.20;0.20;;;10.40;99.90;;;;;;4828558;29;20053;-82
2023/10/31 03:38:45;;;;;;;0.10;0.10;;;10.30;99.90;;;;;;4838745;29;20657;-81
2023/10/31 03:41:11;;;;;;;0.10;0.10;;;10.40;99.90;;;;;;4838019;29;20046;-84
2023/10/31 03:43:36;;;;;;;0.13;0.13;;;10.40;99.90;;;;;;4819376;29;20053;-84
2023/10/31 03:46:04;;;;;;;0.20;0.20;;;10.30;99.90;;;;;;4825520;29;20141;-86
2023/10/31 03:48:30;;;;;;;0.20;0.20;;;10.40;99.90;;;;;;4831753;29;20418;-84
2023/10/31 03:50:58;;;;;;;0.20;0.20;;;10.40;99.90;;;;;;4827105;29;20061;-85
2023/10/31 03:53:24;;;;;;;0.10;0.10;;;10.30;99.90;;;;;;4838362;29;20136;-84
2023/10/31 03:55:50;;;;;;;0.20;0.20;;;10.40;99.90;;;;;;4832034;29;20199;-85
2023/10/31 03:58:15;;;;;;;0.20;0.20;;;10.30;99.90;;;;;;4835937;29;20137;-85
2023/10/31 04:00:41;;;;;;;0.20;0.20;;;10.30;99.90;;;;;;4832078;29;20136;-84
2023/10/31 04:03:08;;;;;;;0.20;0.20;;;10.30;99.90;;;;;;4836717;29;20113;-84
2023/10/31 04:05:34;;;;;;;0.10;0.10;;;10.30;99.90;;;;;;4824940;29;20566;-85
2023/10/31 04:08:00;;;;;;;0.10;0.10;;;10.40;99.90;;;;;;4819791;29;20142;-84
2023/10/31 04:10:26;;;;;;;0.17;0.17;;;10.40;99.90;;;;;;4828051;29;20086;-84
2023/10/31 04:12:52;;;;;;;0.10;0.10;;;10.40;99.90;;;;;;4822826;29;20081;-84
2023/10/31 04:15:17;;;;;;;0.15;0.15;;;10.40;99.90;;;;;;4818621;29;20050;-84
2023/10/31 04:17:43;;;;;;;0.20;0.20;;;10.40;99.90;;;;;;4832393;29;20495;-86
2023/10/31 04:20:09;;;;;;;0.10;0.10;;;10.40;99.90;;;;;;4837441;29;20448;-87
2023/10/31 04:22:35;;;;;;;0.10;0.10;;;10.50;99.90;;;;;;4829247;29;20397;-84
2023/10/31 04:25:00;;;;;;;0.20;0.20;;;10.40;99.90;;;;;;4828074;29;20054;-84
2023/10/31 04:27:26;;;;;;;0.20;0.20;;;10.50;99.90;;;;;;4829627;29;20583;-84
2023/10/31 04:29:52;;;;;;;0.10;0.10;;;10.40;99.90;;;;;;4832770;29;20384;-84
2023/10/31 04:32:17;;;;;;;0.10;0.10;;;10.40;99.90;;;;;;4825134;29;20050;-84
2023/10/31 04:34:43;;;;;;;0.10;0.10;;;10.40;99.90;;;;;;4821381;29;20098;-84
2023/10/31 04:37:09;;;;;;;0.20;0.20;;;10.50;99.90;;;;;;4837353;29;20054;-80
2023/10/31 04:39:35;;;;;;;0.10;0.10;;;10.50;99.90;;;;;;4835224;29;22255;-81
2023/10/31 04:42:00;;;;;;;0.10;0.10;;;10.40;99.90;;;;;;4811937;29;20084;-85
2023/10/31 04:44:26;;;;;;;0.20;0.20;;;10.50;99.90;;;;;;4822189;29;20046;-89
2023/10/31 04:46:52;;;;;;;0.15;0.15;;;10.50;99.90;;;;;;4816992;29;20052;-84
2023/10/31 04:49:17;;;;;;;0.10;0.10;;;10.50;99.90;;;;;;4825119;29;20061;-83
2023/10/31 04:51:43;;;;;;;0.20;0.20;;;10.50;99.90;;;;;;4824032;29;20042;-85
2023/10/31 04:54:09;;;;;;;0.13;0.13;;;10.50;99.90;;;;;;4832278;29;20050;-80
2023/10/31 04:56:35;;;;;;;0.20;0.20;;;10.40;99.90;;;;;;4831955;29;20058;-81
2023/10/31 04:59:00;;;;;;;0.20;0.20;;;10.50;99.90;;;;;;4820710;29;20052;-83
2023/10/31 05:01:26;;;;;;;0.15;0.15;;;10.40;99.90;;;;;;4836323;29;20403;-81
2023/10/31 05:03:53;;;;;;;0.20;0.20;;;10.50;99.90;;;;;;4824112;29;20146;-82
2023/10/31 05:06:22;;;;;;;0.15;0.15;;;10.40;99.90;;;;;;4818185;29;20050;-81
2023/10/31 05:08:49;;;;;;;0.20;0.20;;;10.40;99.90;;;;;;4826223;29;20106;-86
2023/10/31 05:11:18;;;;;;;0.20;0.20;;;10.40;99.90;;;;;;4823487;29;20055;-83
2023/10/31 05:13:44;;;;;;;0.13;0.13;;;10.50;99.90;;;;;;4822384;29;20057;-83
2023/10/31 05:16:11;;;;;;;0.20;0.20;;;10.50;99.90;;;;;;4829109;29;20451;-83
2023/10/31 05:18:38;;;;;;;0.10;0.10;;;10.40;99.90;;;;;;4818956;29;20163;-84
2023/10/31 05:21:04;;;;;;;0.10;0.10;;;10.50;99.90;;;;;;4821959;29;20050;-83
2023/10/31 05:23:30;;;;;;;0.15;0.15;;;10.40;99.90;;;;;;4829369;29;20272;-83
2023/10/31 05:25:56;;;;;;;0.20;0.20;;;10.40;99.90;;;;;;4827970;29;20462;-83
2023/10/31 05:28:23;;;;;;;0.17;0.17;;;10.40;99.90;;;;;;4840213;29;20721;-83
2023/10/31 05:30:49;;;;;;;0.10;0.10;;;10.50;99.90;;;;;;4823743;29;20128;-83
2023/10/31 05:33:15;;;;;;;0.20;0.20;;;10.50;99.90;;;;;;4822187;29;20125;-83
2023/10/31 05:35:41;;;;;;;0.20;0.20;;;10.50;99.90;;;;;;4830038;29;20203;-83
2023/10/31 05:38:07;;;;;;;0.20;0.20;;;10.50;99.90;;;;;;4841072;29;20561;-84
2023/10/31 05:40:35;;;;;;;0.10;0.10;;;10.60;99.90;;;;;;4829312;29;20046;-83
2023/10/31 05:43:01;;;;;;;0.10;0.10;;;10.50;99.90;;;;;;4825475;29;20066;-83
2023/10/31 05:45:27;;;;;;;0.20;0.20;;;10.50;99.90;;;;;;4825402;29;20047;-86
2023/10/31 05:47:52;;;;;;;0.13;0.13;;;10.50;99.90;;;;;;4820683;29;20167;-84
2023/10/31 05:50:18;;;;;;;0.10;0.10;;;10.50;99.90;;;;;;4822818;29;20050;-84
2023/10/31 05:52:44;;;;;;;0.10;0.10;;;10.50;99.90;;;;;;4822898;29;20050;-88
2023/10/31 05:55:10;;;;;;;0.10;0.10;;;10.60;99.90;;;;;;4823608;29;20149;-84
2023/10/31 05:57:36;;;;;;;0.20;0.20;;;10.50;99.90;;;;;;4821810;29;20050;-83
2023/10/31 06:00:01;;;;;;;0.10;0.10;;;10.50;99.90;;;;;;4832839;29;20078;-84
2023/10/31 06:02:28;;;;;;;0.13;0.13;;;10.50;99.90;;;;;;4838672;29;20053;-85
2023/10/31 06:04:53;;;;;;;0.10;0.10;;;10.50;99.90;;;;;;4830424;29;20130;-84
2023/10/31 06:07:19;;;;;;;0.10;0.10;;;10.50;99.90;;;;;;4823505;29;20081;-83
2023/10/31 06:09:44;;;;;;;0.10;0.10;;;10.50;99.90;;;;;;4825586;29;20091;-84
2023/10/31 06:12:10;;;;;;;0.20;0.20;;;10.50;99.90;;;;;;4838811;29;20046;-83
2023/10/31 06:14:37;;;;;;;0.10;0.10;;;10.50;99.90;;;;;;4826235;29;20050;-81
2023/10/31 06:17:02;;;;;;;0.20;0.20;;;10.50;99.90;;;;;;4839204;29;20398;-82
2023/10/31 06:19:28;;;;;;;0.10;0.10;;;10.50;99.90;;;;;;4822489;29;20046;-87
2023/10/31 06:21:54;;;;;;;0.20;0.20;;;10.50;99.90;;;;;;4822663;29;20111;-84
2023/10/31 06:24:19;;;;;;;0.10;0.10;;;10.50;99.90;;;;;;4829327;29;20061;-83
2023/10/31 06:26:45;;;;;;;0.10;0.10;;;10.50;99.90;;;;;;4822749;29;20046;-83
2023/10/31 06:29:10;;;;;;;0.20;0.20;;;10.50;99.90;;;;;;4837386;29;20084;-84
2023/10/31 06:31:36;;;;;;;0.10;0.10;;;10.50;99.90;;;;;;4840270;29;20124;-83
2023/10/31 06:34:02;;;;;;;0.10;0.10;;;10.50;99.90;;;;;;4833553;29;20103;-83
2023/10/31 06:36:28;;;;;;;0.10;0.10;;;10.50;99.90;;;;;;4831073;29;20050;-84
2023/10/31 06:38:53;;;;;;;0.10;0.10;;;10.50;99.90;;;;;;4829389;29;20065;-85
2023/10/31 06:41:22;;;;;;;0.20;0.20;;;10.50;99.90;;;;;;4833781;29;20057;-84
2023/10/31 06:43:48;;;;;;;0.10;0.10;;;10.50;99.90;;;;;;4828240;29;20061;-86
2023/10/31 06:46:15;;;;;;;0.20;0.20;;;10.50;99.90;;;;;;4828272;29;20065;-86
2023/10/31 06:48:40;;;;;;;0.10;0.10;;;10.50;99.90;;;;;;4828845;29;20085;-84
2023/10/31 06:51:06;;;;;;;0.10;0.10;;;10.60;99.90;;;;;;4832708;29;20387;-85
2023/10/31 06:53:32;;;;;;;0.20;0.20;;;10.50;99.90;;;;;;4836590;29;20079;-85
2023/10/31 06:55:58;;;;;;;0.20;0.20;;;10.50;99.90;;;;;;4839888;29;20053;-83
2023/10/31 06:58:23;;;;;;;0.10;0.10;;;10.60;99.90;;;;;;4826275;29;20054;-85
2023/10/31 07:00:49;;;;;;;0.10;0.10;;;10.60;99.90;;;;;;4828360;29;20082;-84
2023/10/31 07:03:16;;;;;;;0.10;0.10;;;10.60;99.90;;;;;;4826023;29;20442;-82
2023/10/31 07:05:42;;;;;;;0.15;0.15;;;10.60;99.90;;;;;;4827575;29;20050;-83
2023/10/31 07:08:07;;;;;;;0.10;0.10;;;10.60;99.90;;;;;;4823179;29;20094;-83
2023/10/31 07:10:33;;;;;;;0.10;0.10;;;10.60;99.90;;;;;;4827769;29;20479;-83
2023/10/31 07:12:59;;;;;;;0.20;0.20;;;10.60;99.90;;;;;;4828308;29;20114;-84
2023/10/31 07:15:25;;;;;;;0.20;0.20;;;10.50;99.90;;;;;;4825737;29;20061;-82
2023/10/31 07:17:51;;;;;;;0.13;0.13;;;10.70;99.90;;;;;;4832569;29;20048;-83
2023/10/31 07:20:17;;;;;;;0.20;0.20;;;10.60;99.90;;;;;;4821098;29;20046;-84
2023/10/31 07:22:43;;;;;;;0.10;0.10;;;10.70;99.90;;;;;;4821406;29;20054;-82
2023/10/31 07:25:09;;;;;;;0.10;0.10;;;10.70;99.90;;;;;;4831959;29;20054;-83
2023/10/31 07:27:35;;;;;;;0.10;0.10;;;10.70;99.90;;;;;;4820737;29;20125;-84
2023/10/31 07:30:03;;;;;;;0.10;0.10;;;10.70;99.90;;;;;;4825575;29;20057;-83
2023/10/31 07:32:29;;;;;;;0.20;0.20;;;10.50;99.90;;;;;;4820979;29;20057;-84
2023/10/31 07:34:55;;;;;;;0.10;0.10;;;10.70;99.90;;;;;;4818058;29;20038;-85
2023/10/31 07:37:21;;;;;;;0.13;0.13;;;10.70;99.90;;;;;;4818744;29;20039;-84
2023/10/31 07:39:50;;;;;;;0.10;0.10;;;10.70;99.90;;;;;;4836502;29;20202;-83
2023/10/31 07:42:16;;;;;;;0.10;0.10;;;10.80;99.90;;;;;;4825957;29;20062;-83
2023/10/31 07:44:42;;;;;;;0.10;0.10;;;10.70;99.90;;;;;;4830012;29;20073;-79
2023/10/31 07:47:07;;;;;;;0.15;0.15;;;10.70;99.90;;;;;;4822222;29;20047;-80
2023/10/31 07:49:33;;;;;;;0.10;0.10;;;10.80;99.90;;;;;;4817502;29;20062;-81
2023/10/31 07:51:59;;;;;;;0.10;0.10;;;10.80;99.90;;;;;;4820024;29;20042;-81
2023/10/31 07:54:24;;;;;;;0.10;0.10;;;10.80;99.90;;;;;;4816792;29;20069;-80
2023/10/31 07:56:50;;;;;;;0.10;0.10;;;10.80;99.90;;;;;;4819347;29;20065;-79
2023/10/31 07:59:16;;;;;;;0.20;0.20;;;10.90;99.90;;;;;;4828514;29;20053;-81
2023/10/31 08:01:41;;;;;;;0.20;0.20;;;10.90;99.90;;;;;;4831667;29;20045;-80
2023/10/31 08:04:07;;;;;;;0.13;0.13;;;10.90;99.90;;;;;;4824866;29;21901;-81
2023/10/31 08:06:33;;;;;;;0.10;0.10;;;10.90;99.90;;;;;;4834254;29;20580;-81
2023/10/31 08:08:59;;;;;;;0.10;0.10;;;10.80;99.90;;;;;;4823230;29;20058;-81
2023/10/31 08:11:24;;;;;;;0.10;0.10;;;11.00;99.90;;;;;;4818985;29;20403;-80
2023/10/31 08:13:50;;;;;;;0.17;0.17;;;10.90;99.90;;;;;;4829661;29;20045;-80
2023/10/31 08:16:19;;;;;;;0.10;0.10;;;11.00;99.90;;;;;;4830772;29;20058;-80
2023/10/31 08:18:46;;;;;;;0.10;0.10;;;11.10;99.90;;;;;;4825710;29;20047;-80
2023/10/31 08:21:12;;;;;;;0.17;0.17;;;11.10;99.90;;;;;;4818612;29;20042;-81
2023/10/31 08:23:38;;;;;;;0.20;0.20;;;11.10;99.90;;;;;;4816992;29;20178;-79
2023/10/31 08:26:04;;;;;;;0.10;0.10;;;11.10;99.90;;;;;;4819538;29;20547;-80
2023/10/31 08:28:30;;;;;;;0.20;0.20;;;11.20;99.90;;;;;;4817433;29;20420;-80
2023/10/31 08:30:56;;;;;;;0.20;0.20;;;11.30;99.90;;;;;;4818925;29;20151;-81
2023/10/31 08:33:22;;;;;;;0.15;0.15;;;11.40;99.90;;;;;;4824237;29;20046;-81
2023/10/31 08:35:48;;;;;;;0.20;0.20;;;11.40;99.90;;;;;;4817855;29;20057;-81
2023/10/31 08:38:14;;;;;;;0.20;0.20;;;11.50;99.90;;;;;;4831078;29;20064;-80
2023/10/31 08:40:40;;;;;;;0.10;0.10;;;11.50;99.90;;;;;;4819447;29;20047;-81
2023/10/31 08:43:06;;;;;;;0.15;0.15;;;11.50;99.90;;;;;;4813698;29;20507;-82
2023/10/31 08:45:33;;;;;;;0.10;0.10;;;11.50;99.90;;;;;;4817307;29;20069;-81
2023/10/31 08:47:59;;;;;;;0.10;0.10;;;11.50;99.90;;;;;;4816322;29;20117;-81
2023/10/31 08:50:25;;;;;;;0.20;0.20;;;11.60;99.90;;;;;;4818900;29;20061;-81
2023/10/31 08:52:51;;;;;;;0.10;0.10;;;11.60;99.90;;;;;;4818892;29;20050;-82
2023/10/31 08:55:16;;;;;;;0.15;0.15;;;11.60;99.90;;;;;;4818004;29;20065;-79
2023/10/31 08:57:42;;;;;;;0.10;0.10;;;11.70;99.90;;;;;;4815570;29;20411;-79
2023/10/31 09:00:08;;;;;;;0.10;0.10;;;11.70;99.90;;;;;;4815968;29;20061;-80
2023/10/31 09:02:34;;;;;;;0.17;0.17;;;11.70;99.90;;;;;;4815183;29;20141;-78
2023/10/31 09:05:00;;;;;;;0.10;0.10;;;11.70;99.90;;;;;;4817781;29;20137;-79
2023/10/31 09:07:25;;;;;;;0.10;0.10;;;11.60;99.90;;;;;;4817620;29;20145;-78
2023/10/31 09:09:51;;;;;;;0.10;0.10;;;11.60;99.90;;;;;;4816804;29;20042;-80
2023/10/31 09:12:16;;;;;;;0.10;0.10;;;11.60;99.90;;;;;;4821159;29;20042;-79
2023/10/31 09:14:42;;;;;;;0.20;0.20;;;11.60;99.90;;;;;;4814212;29;20062;-78
2023/10/31 09:17:08;;;;;;;0.20;0.20;;;11.50;99.90;;;;;;4808423;29;20050;-77
2023/10/31 09:19:33;;;;;;;0.20;0.20;;;11.50;99.90;;;;;;4823218;29;20187;-78
2023/10/31 09:21:59;;;;;;;0.15;0.15;;;11.50;99.90;;;;;;4823231;29;20046;-80
2023/10/31 09:24:25;;;;;;;0.10;0.10;;;11.40;99.90;;;;;;4819780;29;20065;-79
2023/10/31 09:26:50;;;;;;;0.20;0.20;;;11.40;99.90;;;;;;4811005;29;20118;-78
2023/10/31 09:29:16;;;;;;;0.20;0.20;;;11.30;99.90;;;;;;4818995;29;20050;-78
2023/10/31 09:31:42;;;;;;;0.20;0.20;;;11.30;99.90;;;;;;4817766;29;20046;-79
2023/10/31 09:34:07;;;;;;;0.20;0.20;;;11.30;99.90;;;;;;4820183;29;20491;-79
2023/10/31 09:36:36;;;;;;;0.10;0.10;;;11.40;99.90;;;;;;4814761;29;20103;-78
2023/10/31 09:39:03;;;;;;;0.20;0.20;;;11.30;99.90;;;;;;4815950;29;20050;-78
2023/10/31 09:41:32;;;;;;;0.10;0.10;;;11.30;99.90;;;;;;4817638;29;20103;-79
2023/10/31 09:43:57;;;;;;;0.20;0.20;;;11.20;99.90;;;;;;4818100;29;20511;-79
2023/10/31 09:46:23;;;;;;;0.10;0.10;;;11.20;99.90;;;;;;4815371;29;20051;-79
2023/10/31 09:48:50;;;;;;;0.10;0.10;;;11.30;99.90;;;;;;4821913;29;20051;-79
2023/10/31 09:51:17;;;;;;;0.10;0.10;;;11.30;99.90;;;;;;4817928;29;20448;-78
2023/10/31 09:53:45;;;;;;;0.10;0.10;;;11.30;99.90;;;;;;4817007;29;20046;-79
2023/10/31 09:56:11;;;;;;;0.10;0.10;;;11.40;99.90;;;;;;4819766;29;20054;-78
2023/10/31 09:58:39;;;;;;;0.10;0.10;;;11.40;99.90;;;;;;4821815;29;20069;-76
2023/10/31 10:01:05;;;;;;;0.10;0.10;;;11.50;99.90;;;;;;4818257;29;20171;-78
2023/10/31 10:03:31;;;;;;;0.20;0.20;;;11.60;99.90;;;;;;4820808;29;20133;-77
2023/10/31 10:05:58;;;;;;;0.15;0.15;;;11.60;99.90;;;;;;4821787;29;20039;-78
2023/10/31 10:08:23;;;;;;;0.17;0.17;;;11.70;99.90;;;;;;4819938;29;20046;-78
2023/10/31 10:10:51;;;;;;;0.17;0.17;;;11.70;99.90;;;;;;4820168;29;20065;-77
2023/10/31 10:13:23;;;;;;;0.20;0.20;;;11.70;99.90;;;;;;4819345;29;20438;-78
2023/10/31 10:15:54;;;;;;;0.10;0.10;;;11.70;99.90;;;;;;4819642;29;20052;-77
2023/10/31 10:18:27;;;;;;;0.10;0.10;;;11.80;99.90;;;;;;4811827;29;20051;-76
2023/10/31 10:21:04;;;;;;;0.17;0.17;;;11.70;99.90;;;;;;4819400;29;20510;-77
2023/10/31 10:23:30;;;;;;;0.20;0.20;;;11.80;99.90;;;;;;4820741;29;20670;-77
2023/10/31 10:25:58;;;;;;;0.20;0.20;;;11.80;99.90;;;;;;4822332;29;20392;-77
2023/10/31 10:28:24;;;;;;;0.20;0.20;;;11.80;99.90;;;;;;4817925;29;20380;-77
2023/10/31 10:30:51;;;;;;;0.10;0.10;;;11.80;99.90;;;;;;4820761;29;20058;-77
2023/10/31 10:33:18;;;;;;;0.20;0.20;;;11.70;99.90;;;;;;4821152;29;20054;-78
2023/10/31 10:35:44;;;;;;;0.20;0.20;;;11.70;99.90;;;;;;4822128;29;20518;-79
2023/10/31 10:38:15;;;;;;;0.17;0.17;;;11.80;99.90;;;;;;4819859;29;20046;-77
2023/10/31 10:40:42;;;;;;;;;;;11.90;99.90;;;;;;4834164;29;20053;-78
2023/10/31 10:43:17;;;;;;;0.20;0.20;;;11.80;99.90;;;;;;4818917;29;20408;-77
2023/10/31 10:45:45;;;;;;;0.10;0.10;;;11.80;99.90;;;;;;4819231;29;20373;-78
2023/10/31 10:48:15;;;;;;;0.10;0.10;;;12.00;99.90;;;;;;4821186;29;20054;-77
2023/10/31 10:50:44;;;;;;;0.20;0.20;;;12.10;99.90;;;;;;4818251;29;20202;-78
2023/10/31 10:53:20;;;;;;;0.10;0.10;;;12.20;99.90;;;;;;4820429;29;20065;-78
2023/10/31 10:55:51;;;;;;;0.17;0.17;;;12.30;99.90;;;;;;4818159;29;20466;-79
2023/10/31 10:58:23;;;;;;;0.20;0.20;;;12.40;99.90;;;;;;4807400;29;20054;-77
2023/10/31 11:00:50;;;;;;;0.20;0.20;;;12.40;99.90;;;;;;4818391;29;20050;-78
2023/10/31 11:03:19;;;;;;;0.10;0.10;;;12.50;99.90;;;;;;4818809;29;20050;-77
2023/10/31 11:05:45;;;;;;;0.20;0.20;;;12.50;99.90;;;;;;4813709;29;20118;-77
2023/10/31 11:08:11;;;;;;;0.10;0.10;;;12.50;99.90;;;;;;4817062;29;20042;-78
2023/10/31 11:10:38;;;;;;;0.10;0.10;;;12.50;99.90;;;;;;4815492;29;20050;-78
2023/10/31 11:13:03;;;;;;;0.20;0.20;;;12.50;99.90;;;;;;4820155;29;20061;-79
2023/10/31 11:15:30;;;;;;;0.20;0.20;;;12.60;99.90;;;;;;4820230;29;20054;-76
2023/10/31 11:17:56;;;;;;;0.10;0.10;;;12.60;99.90;;;;;;4816279;29;20045;-78
2023/10/31 11:20:23;;;;;;;0.20;0.20;;;12.60;99.90;;;;;;4815019;29;20042;-77
2023/10/31 11:22:57;;;;;;;0.10;0.10;;;12.60;99.90;;;;;;4816368;29;20191;-78
2023/10/31 11:25:23;;;;;;;0.10;0.10;;;12.60;99.90;;;;;;4811180;29;20043;-78
2023/10/31 11:28:10;;;;;;;0.10;0.10;;;12.60;99.90;;;;;;4817523;29;20054;-77
2023/10/31 11:30:36;;;;;;;0.10;0.10;;;12.70;99.90;;;;;;4820733;29;20085;-77
2023/10/31 11:33:03;;;;;;;0.20;0.20;;;12.70;99.90;;;;;;4811761;29;20587;-77
2023/10/31 11:35:38;;;;;;;0.10;0.10;;;12.80;99.90;;;;;;4821697;29;20394;-78
2023/10/31 11:38:10;;;;;;;0.20;0.20;;;12.90;99.90;;;;;;4821605;29;20078;-77
2023/10/31 11:41:00;;;;;;;0.10;0.10;;;12.90;99.90;;;;;;4818211;29;20523;-77
2023/10/31 11:43:25;;;;;;;0.10;0.10;;;12.90;99.90;;;;;;4813492;29;20050;-78
2023/10/31 11:45:54;;;;;;;0.20;0.20;;;13.00;99.90;;;;;;4818730;29;20050;-78
2023/10/31 11:48:51;;;;;;;0.20;0.20;;;13.00;99.90;;;;;;4818588;29;20053;-77
2023/10/31 11:51:17;;;;;;;0.10;0.10;;;13.10;99.90;;;;;;4816240;29;20054;-93
2023/10/31 11:53:44;;;;;;;0.20;0.20;;;13.10;99.90;;;;;;4817067;29;20057;-78
2023/10/31 11:56:11;;;;;;;0.20;0.20;;;13.30;99.90;;;;;;4813670;29;20067;-78
2023/10/31 11:58:37;;;;;;;0.20;0.20;;;13.30;99.90;;;;;;4815600;29;20498;-77
2023/10/31 12:01:05;;;;;;;0.17;0.17;;;13.40;99.90;;;;;;4818563;29;20095;-78
2023/10/31 12:03:41;;;;;;;0.10;0.10;;;13.40;99.90;;;;;;4812936;29;20115;-77
2023/10/31 12:06:08;;;;;;;0.10;0.10;;;13.30;99.90;;;;;;4818848;29;20046;-78
2023/10/31 12:08:36;;;;;;;0.10;0.10;;;13.20;99.90;;;;;;4816912;29;20058;-78
2023/10/31 12:11:20;;;;;;;0.10;0.10;;;13.10;99.90;;;;;;4820835;29;20100;-78
2023/10/31 12:13:55;;;;;;;0.10;0.10;;;13.00;99.90;;;;;;4816989;29;20406;-77
2023/10/31 12:16:31;;;;;;;0.13;0.13;;;13.00;99.90;;;;;;4818753;29;20058;-77
2023/10/31 12:19:02;;;;;;;0.10;0.10;;;12.90;99.90;;;;;;4802973;29;20061;-77
2023/10/31 12:21:39;;;;;;;0.10;0.10;;;12.90;99.90;;;;;;4834295;29;20058;-77
2023/10/31 12:24:13;;;;;;;0.10;0.10;;;12.90;99.90;;;;;;4816255;29;20058;-78
2023/10/31 12:26:39;;;;;;;0.10;0.10;;;12.90;99.90;;;;;;4817279;29;20369;-79
2023/10/31 12:29:16;;;;;;;0.20;0.20;;;12.80;99.90;;;;;;4816601;29;20058;-81
2023/10/31 12:31:46;;;;;;;0.10;0.10;;;12.70;99.90;;;;;;4817028;29;20075;-75
2023/10/31 12:34:13;;;;;;;0.10;0.10;;;12.60;99.90;;;;;;4817124;29;20076;-76
2023/10/31 12:36:40;;;;;;;0.10;0.10;;;12.50;99.90;;;;;;4820150;29;20054;-76
2023/10/31 12:39:09;;;;;;;0.10;0.10;;;12.40;99.90;;;;;;4817135;29;20094;-76
2023/10/31 12:41:35;;;;;;;0.20;0.20;;;12.40;99.90;;;;;;4820153;29;20533;-78
2023/10/31 12:44:02;;;;;;;0.20;0.20;;;12.30;99.90;;;;;;4817386;29;20054;-77
2023/10/31 12:46:32;;;;;;;0.20;0.20;;;12.20;99.90;;;;;;4817291;29;20046;-76